Time;durP1;ratioP1;P1;durP2;ratioP2;P2;SDS_P1;SDS_P2;PMS_P1;PMS_P2;Temp;Humidity;BMP_temperature;BMP_pressure;BME280_temperature;BME280_humidity;BME280_pressure;Samples;Min_cycle;Max_cycle;Signal;HPM_P1;HPM_P2
2021/06/04 00:01:18;;;;;;;13.98;11.23;;;;;;;19.63;100.00;101515.69;4972235;28;20510;-75
2021/06/04 00:03:44;;;;;;;14.20;11.25;;;;;;;19.74;100.00;101507.47;4972634;28;20045;-75
2021/06/04 00:06:10;;;;;;;13.45;11.13;;;;;;;19.80;100.00;101512.13;4968926;28;20554;-75
2021/06/04 00:08:36;;;;;;;13.80;11.88;;;;;;;19.60;100.00;101508.28;4963786;28;20057;-74
2021/06/04 00:11:19;;;;;;;15.70;11.82;;;;;;;19.68;100.00;101503.59;4971819;28;20030;-74
2021/06/04 00:13:48;;;;;;;16.98;11.70;;;;;;;19.60;100.00;101502.81;4972680;28;20039;-75
2021/06/04 00:16:30;;;;;;;15.27;11.25;;;;;;;19.52;100.00;101508.69;4952067;28;20986;-75
2021/06/04 00:18:59;;;;;;;15.18;11.45;;;;;;;19.56;100.00;101504.00;4964196;28;20647;-75
2021/06/04 00:21:35;;;;;;;14.80;11.85;;;;;;;19.70;100.00;101503.97;4971411;28;20435;-74
2021/06/04 00:24:01;;;;;;;16.35;11.73;;;;;;;19.79;100.00;101501.59;4972458;28;20049;-73
2021/06/04 00:26:29;;;;;;;15.32;11.98;;;;;;;19.61;100.00;101498.13;4969126;28;20093;-75
2021/06/04 00:28:56;;;;;;;15.30;11.82;;;;;;;19.69;100.00;101503.19;4972120;28;20066;-74
2021/06/04 00:31:21;;;;;;;13.75;11.40;;;;;;;19.56;100.00;101499.31;4934544;29;20038;-75
2021/06/04 00:33:48;;;;;;;14.82;11.70;;;;;;;19.50;100.00;101497.38;4967543;28;20403;-74
2021/06/04 00:36:14;;;;;;;15.73;11.88;;;;;;;19.49;100.00;101493.09;4972055;28;20170;-75
2021/06/04 00:38:40;;;;;;;20.40;11.55;;;;;;;19.46;100.00;101491.13;4967351;28;20047;-75
2021/06/04 00:41:12;;;;;;;16.02;11.82;;;;;;;19.41;100.00;101494.28;4969951;28;20035;-75
2021/06/04 00:43:38;;;;;;;14.02;11.68;;;;;;;19.47;100.00;101490.75;4971032;28;20031;-75
2021/06/04 00:46:07;;;;;;;14.98;11.50;;;;;;;19.41;100.00;101489.59;4971325;28;20496;-75
2021/06/04 00:48:35;;;;;;;15.88;11.30;;;;;;;19.40;100.00;101479.84;4965941;28;20050;-75
2021/06/04 00:51:12;;;;;;;12.65;11.32;;;;;;;19.49;100.00;101488.38;4971828;28;20511;-75
2021/06/04 00:53:40;;;;;;;14.77;11.60;;;;;;;19.59;100.00;101489.53;4960051;28;20450;-74
2021/06/04 00:56:07;;;;;;;13.75;11.50;;;;;;;19.63;100.00;101487.56;4967730;28;20035;-75
2021/06/04 00:58:37;;;;;;;15.82;11.60;;;;;;;19.56;100.00;101490.34;4970369;28;20038;-74
2021/06/04 01:01:05;;;;;;;14.85;11.57;;;;;;;19.44;100.00;101491.53;4953924;28;20037;-76
2021/06/04 01:03:36;;;;;;;15.75;11.48;;;;;;;19.48;100.00;101494.25;4948071;28;20565;-75
2021/06/04 01:06:11;;;;;;;13.95;11.35;;;;;;;19.44;100.00;101494.28;4967501;28;20038;-75
2021/06/04 01:08:55;;;;;;;12.13;10.82;;;;;;;19.42;100.00;101495.81;4950689;28;20066;-75
2021/06/04 01:11:44;;;;;;;14.00;11.13;;;;;;;19.45;100.00;101495.81;4952499;28;20376;-75
2021/06/04 01:14:42;;;;;;;13.32;10.93;;;;;;;19.31;100.00;101484.91;4962696;28;20027;-75
2021/06/04 01:17:52;;;;;;;13.07;11.40;;;;;;;19.35;100.00;101485.72;4961657;28;20134;-76
2021/06/04 01:20:21;;;;;;;15.07;10.77;;;;;;;19.42;100.00;101480.22;4935504;28;20495;-75
2021/06/04 01:23:24;;;;;;;15.93;11.13;;;;;;;19.31;100.00;101482.19;4971225;28;20035;-75
2021/06/04 01:26:00;;;;;;;13.65;11.07;;;;;;;19.41;100.00;101481.41;4961162;28;20046;-73
2021/06/04 01:28:49;;;;;;;15.32;11.80;;;;;;;19.45;100.00;101475.94;4962992;28;20503;-75
2021/06/04 01:31:25;;;;;;;15.30;11.48;;;;;;;19.49;100.00;101473.97;4961438;28;20042;-75
2021/06/04 01:33:58;;;;;;;13.77;11.77;;;;;;;19.39;100.00;101474.78;4965704;28;20086;-75
2021/06/04 01:36:35;;;;;;;14.68;11.55;;;;;;;19.48;100.00;101470.44;4963817;28;21061;-73
2021/06/04 01:39:06;;;;;;;13.23;11.50;;;;;;;19.53;100.00;101469.28;4952138;28;20042;-73
2021/06/04 01:41:35;;;;;;;18.58;12.55;;;;;;;19.55;100.00;101475.88;4949881;28;20122;-75
2021/06/04 01:44:15;;;;;;;13.80;11.23;;;;;;;19.61;100.00;101474.31;4963586;28;20054;-74
2021/06/04 01:46:46;;;;;;;15.38;11.65;;;;;;;19.71;100.00;101473.50;4971483;28;20027;-75
2021/06/04 01:49:24;;;;;;;15.20;12.20;;;;;;;19.71;100.00;101475.44;4964154;28;20227;-75
2021/06/04 01:51:59;;;;;;;15.63;12.18;;;;;;;19.56;100.00;101477.47;4978198;28;20030;-75
2021/06/04 01:54:40;;;;;;;18.27;12.13;;;;;;;19.49;100.00;101479.44;4953553;28;20415;-75
2021/06/04 01:57:13;;;;;;;15.75;12.55;;;;;;;19.57;100.00;101481.72;4967620;28;20038;-75
2021/06/04 01:59:43;;;;;;;17.45;12.50;;;;;;;19.40;100.00;101471.63;4947022;28;20059;-74
2021/06/04 02:02:22;;;;;;;14.30;12.25;;;;;;;19.38;100.00;101471.25;4949507;28;20573;-73
2021/06/04 02:04:53;;;;;;;16.45;12.32;;;;;;;19.45;100.00;101471.22;4969438;28;20035;-75
2021/06/04 02:07:25;;;;;;;14.02;12.50;;;;;;;19.58;100.00;101477.06;4946400;28;20033;-75
2021/06/04 02:09:52;;;;;;;16.08;12.18;;;;;;;19.63;100.00;101469.22;4969505;28;20077;-75
2021/06/04 02:12:27;;;;;;;14.73;11.95;;;;;;;19.64;100.00;101467.28;4953446;28;20411;-75
2021/06/04 02:15:24;;;;;;;17.25;12.43;;;;;;;19.72;100.00;101461.38;4949023;28;20070;-75
2021/06/04 02:18:17;;;;;;;14.30;12.13;;;;;;;19.67;100.00;101463.75;4951095;28;20035;-75
2021/06/04 02:21:01;;;;;;;14.82;12.57;;;;;;;19.77;100.00;101463.72;4968977;28;20041;-75
2021/06/04 02:23:38;;;;;;;16.88;13.05;;;;;;;19.76;100.00;101456.66;4955943;28;20050;-75
2021/06/04 02:26:23;;;;;;;15.13;12.43;;;;;;;19.66;100.00;101456.72;4946610;28;20270;-75
2021/06/04 02:29:05;;;;;;;17.13;12.82;;;;;;;19.75;100.00;101454.34;4944947;28;20038;-75
2021/06/04 02:32:00;;;;;;;16.02;12.80;;;;;;;19.64;100.00;101454.41;4969202;28;20049;-75
2021/06/04 02:34:34;;;;;;;16.38;12.88;;;;;;;19.74;100.00;101450.06;4948184;28;20558;-75
2021/06/04 02:37:20;;;;;;;19.05;12.85;;;;;;;19.65;100.00;101453.22;4954522;28;20110;-74
2021/06/04 02:39:52;;;;;;;15.23;12.18;;;;;;;19.69;100.00;101445.78;4956701;28;20035;-75
2021/06/04 02:42:22;;;;;;;15.73;12.27;;;;;;;19.58;100.00;101445.03;4954965;28;20035;-73
2021/06/04 02:44:59;;;;;;;13.52;11.77;;;;;;;19.49;100.00;101447.41;4973301;28;20038;-75
2021/06/04 02:47:31;;;;;;;15.02;12.23;;;;;;;19.48;100.00;101456.78;4973469;28;20018;-75
2021/06/04 02:50:03;;;;;;;13.50;11.30;;;;;;;19.35;100.00;101458.41;4967226;28;20137;-75
2021/06/04 02:52:37;;;;;;;12.75;11.20;;;;;;;19.36;100.00;101459.16;4972594;28;20041;-73
2021/06/04 02:55:10;;;;;;;13.50;11.45;;;;;;;19.37;100.00;101447.06;4958676;28;20380;-73
2021/06/04 02:57:38;;;;;;;17.20;11.75;;;;;;;19.19;100.00;101452.53;4967001;28;20046;-74
2021/06/04 03:00:35;;;;;;;15.93;11.20;;;;;;;19.26;100.00;101449.78;4973866;28;20038;-73
2021/06/04 03:03:01;;;;;;;12.18;10.48;;;;;;;19.32;100.00;101452.88;4943787;28;20078;-73
2021/06/04 03:05:30;;;;;;;13.55;11.65;;;;;;;19.34;100.00;101456.81;4957323;28;20031;-73
2021/06/04 03:07:56;;;;;;;15.07;11.07;;;;;;;19.36;100.00;101459.16;4969578;28;20535;-74
2021/06/04 03:10:25;;;;;;;22.52;10.82;;;;;;;19.36;100.00;101459.94;4971903;28;20045;-74
2021/06/04 03:12:52;;;;;;;11.23;10.07;;;;;;;19.29;100.00;101459.94;4956942;28;20562;-73
2021/06/04 03:15:38;;;;;;;17.50;10.43;;;;;;;19.31;100.00;101465.00;4968092;28;20117;-74
2021/06/04 03:18:12;;;;;;;13.82;10.95;;;;;;;19.43;100.00;101464.63;4960747;28;20035;-73
2021/06/04 03:20:44;;;;;;;12.05;10.00;;;;;;;19.54;100.00;101466.13;4957415;28;20042;-74
2021/06/04 03:23:15;;;;;;;11.52;9.77;;;;;;;19.36;100.00;101465.41;4960108;28;20150;-75
2021/06/04 03:25:45;;;;;;;13.60;9.85;;;;;;;19.35;100.00;101466.59;4972904;28;20038;-74
2021/06/04 03:28:17;;;;;;;13.50;10.25;;;;;;;19.30;100.00;101456.00;4969165;28;20043;-74
2021/06/04 03:30:47;;;;;;;11.63;10.07;;;;;;;19.34;100.00;101461.50;4972801;28;20041;-74
2021/06/04 03:33:18;;;;;;;13.88;10.02;;;;;;;19.29;100.00;101459.16;4959831;28;20035;-77
2021/06/04 03:35:49;;;;;;;11.35;9.48;;;;;;;19.20;100.00;101462.28;4952443;28;20122;-73
2021/06/04 03:38:17;;;;;;;12.45;10.07;;;;;;;19.38;100.00;101467.72;4966365;28;20031;-76
2021/06/04 03:40:45;;;;;;;11.82;9.48;;;;;;;19.15;100.00;101468.16;4952444;28;20491;-73
2021/06/04 03:43:14;;;;;;;11.95;9.35;;;;;;;19.19;100.00;101457.22;4968117;28;20114;-73
2021/06/04 03:45:42;;;;;;;12.07;9.48;;;;;;;19.17;100.00;101463.06;4965874;28;20718;-73
2021/06/04 03:48:12;;;;;;;10.90;9.00;;;;;;;18.93;100.00;101472.06;4968109;28;20037;-73
2021/06/04 03:50:39;;;;;;;10.90;9.18;;;;;;;18.62;100.00;101462.72;4971319;28;20049;-73
2021/06/04 03:53:07;;;;;;;13.05;9.57;;;;;;;18.64;100.00;101463.09;4971214;28;20046;-73
2021/06/04 03:55:33;;;;;;;11.55;8.75;;;;;;;18.64;100.00;101460.38;4960595;28;20038;-77
2021/06/04 03:57:59;;;;;;;13.80;9.20;;;;;;;18.56;100.00;101458.03;4960291;28;20081;-74
2021/06/04 04:00:28;;;;;;;15.20;8.98;;;;;;;18.58;100.00;101464.66;4970024;28;20039;-74
2021/06/04 04:02:55;;;;;;;12.82;8.57;;;;;;;18.59;100.00;101465.44;4972708;28;20030;-73
2021/06/04 04:05:22;;;;;;;12.40;8.77;;;;;;;18.60;100.00;101464.28;4970767;28;20026;-73
2021/06/04 04:07:49;;;;;;;11.60;8.93;;;;;;;18.72;100.00;101467.41;4957780;28;20481;-73
2021/06/04 04:10:15;;;;;;;9.95;7.90;;;;;;;18.64;100.00;101465.06;4971904;28;20038;-75
2021/06/04 04:12:47;;;;;;;10.10;8.88;;;;;;;18.73;100.00;101457.25;4970370;28;20153;-74
2021/06/04 04:15:17;;;;;;;11.98;8.85;;;;;;;18.77;100.00;101461.56;4972777;28;20038;-74
2021/06/04 04:17:44;;;;;;;11.20;8.75;;;;;;;18.83;100.00;101461.94;4973375;28;20027;-73
2021/06/04 04:20:15;;;;;;;11.02;9.32;;;;;;;18.82;100.00;101463.09;4955316;28;20357;-73
2021/06/04 04:22:41;;;;;;;9.73;8.02;;;;;;;18.98;100.00;101458.03;4972817;28;20126;-77
2021/06/04 04:25:08;;;;;;;9.30;8.23;;;;;;;19.09;99.67;101456.06;4973011;28;20121;-75
2021/06/04 04:27:34;;;;;;;10.88;8.15;;;;;;;19.12;98.94;101470.88;4955882;28;20495;-73
2021/06/04 04:30:00;;;;;;;10.90;8.45;;;;;;;19.00;99.62;101458.41;4972288;28;20138;-73
2021/06/04 04:32:25;;;;;;;10.80;7.97;;;;;;;19.09;99.45;101468.94;4970311;28;20067;-73
2021/06/04 04:34:52;;;;;;;9.75;8.30;;;;;;;19.19;98.19;101463.47;4972229;28;20042;-73
2021/06/04 04:37:18;;;;;;;9.68;8.48;;;;;;;19.11;99.04;101464.63;4973093;28;20681;-73
2021/06/04 04:39:46;;;;;;;11.32;8.07;;;;;;;18.96;100.00;101474.03;4966720;28;20042;-73
2021/06/04 04:42:14;;;;;;;9.23;7.88;;;;;;;18.94;100.00;101468.16;4964170;28;20041;-74
2021/06/04 04:44:42;;;;;;;12.40;8.60;;;;;;;19.01;100.00;101468.16;4967195;28;20026;-75
2021/06/04 04:47:12;;;;;;;9.57;8.07;;;;;;;18.98;100.00;101466.22;4972231;28;20038;-74
2021/06/04 04:49:37;;;;;;;10.45;8.02;;;;;;;19.07;100.00;101474.78;4970326;28;20030;-73
2021/06/04 04:52:11;;;;;;;10.85;8.38;;;;;;;19.17;100.00;101473.22;4956105;28;20579;-73
2021/06/04 04:54:39;;;;;;;11.30;8.52;;;;;;;19.22;100.00;101470.09;4965517;28;20035;-73
2021/06/04 04:57:05;;;;;;;11.32;8.18;;;;;;;19.29;99.50;101479.06;5008371;23;20453;-73
2021/06/04 04:59:31;;;;;;;12.40;8.35;;;;;;;19.31;99.38;101471.25;4991806;28;20047;-73
2021/06/04 05:01:56;;;;;;;9.75;8.15;;;;;;;19.39;98.81;101485.69;4987055;28;20030;-72
2021/06/04 05:04:22;;;;;;;9.70;7.97;;;;;;;19.48;97.76;101478.66;4979846;28;20042;-72
2021/06/04 05:06:49;;;;;;;8.85;7.95;;;;;;;19.56;96.38;101490.34;4986258;28;20027;-72
2021/06/04 05:09:14;;;;;;;15.55;8.15;;;;;;;19.69;95.47;101489.50;4990868;28;20097;-73
2021/06/04 05:11:40;;;;;;;9.50;7.72;;;;;;;20.09;94.70;101481.94;4990681;28;20031;-73
2021/06/04 05:14:06;;;;;;;8.57;7.28;;;;;;;20.53;93.09;101487.53;4989463;28;20105;-72
2021/06/04 05:16:31;;;;;;;7.82;6.85;;;;;;;21.06;89.85;101471.47;4981501;28;20022;-72
2021/06/04 05:18:57;;;;;;;10.75;6.80;;;;;;;21.47;87.10;101474.19;4973729;28;20054;-73
2021/06/04 05:21:22;;;;;;;9.00;6.75;;;;;;;21.76;86.78;101474.63;4986362;28;20023;-73
2021/06/04 05:23:48;;;;;;;10.32;6.43;;;;;;;22.12;84.22;101475.78;4984355;28;20030;-72
2021/06/04 05:26:13;;;;;;;9.10;5.90;;;;;;;22.38;82.25;101484.00;4983284;28;20039;-73
2021/06/04 05:28:40;;;;;;;11.73;6.43;;;;;;;22.61;80.47;101480.53;4984014;28;20014;-73
2021/06/04 05:31:09;;;;;;;7.90;6.00;;;;;;;22.90;78.82;101478.13;4986917;28;20391;-72
2021/06/04 05:33:39;;;;;;;9.45;5.82;;;;;;;23.22;78.44;101478.34;4985060;28;20026;-71
2021/06/04 05:36:08;;;;;;;10.13;6.60;;;;;;;23.09;75.97;101483.66;4976638;28;20034;-72
2021/06/04 05:38:34;;;;;;;11.95;5.60;;;;;;;23.25;75.74;101485.72;4977740;28;20046;-74
2021/06/04 05:41:00;;;;;;;8.15;5.40;;;;;;;23.41;76.12;101483.09;4987108;28;20034;-73
2021/06/04 05:43:29;;;;;;;7.45;5.47;;;;;;;23.54;74.90;101483.28;4988424;28;20030;-74
2021/06/04 05:45:56;;;;;;;9.43;5.50;;;;;;;23.70;74.94;101488.81;4987662;28;20038;-72
2021/06/04 05:48:23;;;;;;;6.53;5.82;;;;;;;23.79;73.96;101492.56;4985449;28;21987;-72
2021/06/04 05:50:52;;;;;;;7.70;5.95;;;;;;;23.80;74.29;101493.34;4984494;28;20046;-73
2021/06/04 05:53:28;;;;;;;7.40;5.50;;;;;;;23.78;72.50;101491.03;4987277;28;20022;-73
2021/06/04 05:55:54;;;;;;;8.40;5.35;;;;;;;23.80;72.62;101490.59;4985589;28;20042;-73
2021/06/04 05:58:21;;;;;;;6.80;5.60;;;;;;;23.98;73.89;101494.50;4985220;28;20781;-73
2021/06/04 06:00:50;;;;;;;7.18;5.72;;;;;;;24.04;69.92;101497.59;4985742;28;20116;-73
2021/06/04 06:03:20;;;;;;;7.93;5.72;;;;;;;23.96;70.84;101507.94;4986149;28;20027;-74
2021/06/04 06:05:45;;;;;;;7.75;6.25;;;;;;;23.96;72.03;101505.16;4985602;28;20411;-74
2021/06/04 06:08:11;;;;;;;8.60;5.50;;;;;;;23.98;70.83;101508.28;4981879;28;20027;-74
2021/06/04 06:10:36;;;;;;;8.77;5.70;;;;;;;24.02;72.00;101506.25;4982661;28;20066;-77
2021/06/04 06:13:03;;;;;;;7.85;6.05;;;;;;;24.13;71.83;101506.81;4984986;28;20061;-73
2021/06/04 06:15:31;;;;;;;7.95;5.72;;;;;;;24.22;70.79;101508.97;4984736;28;20426;-74
2021/06/04 06:17:57;;;;;;;10.63;5.45;;;;;;;24.35;69.88;101509.09;4985434;28;20042;-75
2021/06/04 06:20:26;;;;;;;10.50;5.38;;;;;;;24.31;70.19;101513.91;4983855;28;20383;-75
2021/06/04 06:22:54;;;;;;;8.63;5.72;;;;;;;24.43;70.20;101508.50;4990866;28;20045;-74
2021/06/04 06:25:26;;;;;;;9.43;5.88;;;;;;;24.25;68.77;101513.66;4980073;28;20045;-75
2021/06/04 06:27:52;;;;;;;10.20;5.38;;;;;;;24.48;68.12;101512.72;4980364;28;20035;-74
2021/06/04 06:30:22;;;;;;;6.18;5.05;;;;;;;24.59;68.17;101504.97;4978049;28;20038;-74
2021/06/04 06:32:48;;;;;;;9.50;6.40;;;;;;;24.63;69.71;101511.97;4982175;28;20042;-74
2021/06/04 06:35:14;;;;;;;8.30;5.82;;;;;;;24.67;69.19;101503.63;4980974;28;20077;-75
2021/06/04 06:37:40;;;;;;;7.28;5.70;;;;;;;24.87;68.24;101513.38;4986044;28;20066;-74
2021/06/04 06:40:07;;;;;;;7.43;5.78;;;;;;;24.13;65.41;101528.06;4977809;28;20081;-75
2021/06/04 06:42:33;;;;;;;7.95;5.40;;;;;;;24.49;68.58;101528.81;4984675;28;20045;-74
2021/06/04 06:44:58;;;;;;;7.18;6.15;;;;;;;23.80;69.17;101518.91;4980013;28;20038;-75
2021/06/04 06:47:24;;;;;;;9.02;5.90;;;;;;;23.86;71.07;101521.91;4977898;28;20031;-74
2021/06/04 06:49:49;;;;;;;7.25;5.85;;;;;;;24.33;69.47;101523.28;4983819;28;20031;-74
2021/06/04 06:52:15;;;;;;;7.78;5.53;;;;;;;24.67;69.26;101518.19;4985646;28;20659;-74
2021/06/04 06:54:41;;;;;;;7.22;5.88;;;;;;;25.01;67.11;101526.03;4985518;28;20061;-74
2021/06/04 06:57:07;;;;;;;9.10;5.95;;;;;;;24.84;63.30;101522.50;4981505;28;20112;-74
2021/06/04 06:59:32;;;;;;;9.25;5.78;;;;;;;24.76;67.42;101517.59;4985406;28;20122;-75
2021/06/04 07:02:00;;;;;;;8.73;6.20;;;;;;;24.78;64.74;101521.47;4984250;28;20030;-74
2021/06/04 07:04:25;;;;;;;6.28;5.63;;;;;;;25.12;65.37;101520.25;4984472;28;20402;-74
2021/06/04 07:06:52;;;;;;;8.10;5.70;;;;;;;25.58;63.50;101519.81;4986469;28;20019;-74
2021/06/04 07:09:18;;;;;;;8.98;5.53;;;;;;;25.14;64.84;101523.34;4983107;28;20582;-73
2021/06/04 07:11:50;;;;;;;8.23;5.88;;;;;;;25.30;65.39;101526.84;4981739;28;20045;-77
2021/06/04 07:14:17;;;;;;;9.38;5.60;;;;;;;25.52;65.64;101532.59;4989632;28;20034;-73
2021/06/04 07:16:43;;;;;;;7.10;5.68;;;;;;;25.78;64.72;101523.97;4990755;28;20483;-74
2021/06/04 07:19:09;;;;;;;6.93;5.97;;;;;;;26.01;63.31;101524.91;4988357;28;20098;-74
2021/06/04 07:21:36;;;;;;;8.07;6.40;;;;;;;25.83;63.53;101528.19;4989142;28;20102;-73
2021/06/04 07:24:02;;;;;;;8.55;5.93;;;;;;;25.91;61.58;101521.25;4982630;28;20053;-74
2021/06/04 07:26:29;;;;;;;7.30;6.32;;;;;;;25.79;62.69;101522.78;4987907;28;20038;-74
2021/06/04 07:29:00;;;;;;;6.15;5.55;;;;;;;25.80;62.10;101521.53;4988994;28;20058;-74
2021/06/04 07:31:26;;;;;;;8.93;6.40;;;;;;;25.85;62.66;101525.78;4987833;28;20038;-74
2021/06/04 07:33:55;;;;;;;7.15;5.78;;;;;;;25.62;62.39;101526.03;4992519;28;20038;-73
2021/06/04 07:36:25;;;;;;;6.60;5.90;;;;;;;25.99;62.65;101528.13;4990947;28;20058;-74
2021/06/04 07:38:51;;;;;;;8.35;6.55;;;;;;;25.94;61.09;101531.41;4990580;28;20049;-74
2021/06/04 07:41:17;;;;;;;9.93;5.78;;;;;;;26.06;61.68;101532.69;4990269;28;20034;-77
2021/06/04 07:43:45;;;;;;;9.77;5.85;;;;;;;25.79;63.95;101541.31;4988712;28;20117;-74
2021/06/04 07:46:12;;;;;;;8.00;5.60;;;;;;;25.97;62.99;101530.56;4989800;28;20034;-74
2021/06/04 07:48:38;;;;;;;6.97;5.85;;;;;;;26.30;61.63;101531.19;4991253;28;20041;-74
2021/06/04 07:51:07;;;;;;;8.23;5.72;;;;;;;26.57;62.48;101528.75;4990470;28;20035;-75
2021/06/04 07:53:33;;;;;;;6.30;5.70;;;;;;;26.66;61.65;101526.09;4994863;28;20030;-73
2021/06/04 07:56:00;;;;;;;10.20;6.32;;;;;;;26.37;62.48;101528.19;4991535;28;20049;-74
2021/06/04 07:58:26;;;;;;;6.93;6.25;;;;;;;26.35;64.50;101534.16;4991596;28;20524;-75
2021/06/04 08:00:53;;;;;;;7.82;6.25;;;;;;;25.15;64.58;101536.72;4985185;28;20043;-74
2021/06/04 08:03:22;;;;;;;7.25;5.80;;;;;;;26.17;63.57;101531.16;4987539;28;20084;-75
2021/06/04 08:05:48;;;;;;;8.35;6.30;;;;;;;26.70;63.87;101535.06;4988579;28;20030;-74
2021/06/04 08:08:14;;;;;;;10.57;6.30;;;;;;;26.83;62.27;101524.00;4986264;28;20022;-74
2021/06/04 08:10:40;;;;;;;9.00;5.75;;;;;;;27.20;60.65;101523.91;4988641;28;20819;-75
2021/06/04 08:13:07;;;;;;;6.22;5.63;;;;;;;27.05;61.17;101531.16;4982775;28;20035;-74
2021/06/04 08:15:39;;;;;;;6.80;5.38;;;;;;;27.47;62.49;101535.25;4988103;28;20034;-74
2021/06/04 08:18:05;;;;;;;9.10;6.28;;;;;;;27.15;59.28;101537.53;4989329;28;20034;-74
2021/06/04 08:20:34;;;;;;;6.45;5.72;;;;;;;27.23;59.40;101536.09;4987362;28;20037;-74
2021/06/04 08:23:07;;;;;;;7.60;6.20;;;;;;;27.59;57.98;101528.88;4989369;28;20119;-73
2021/06/04 08:25:37;;;;;;;7.60;5.78;;;;;;;27.23;58.76;101534.09;4990957;28;20033;-76
2021/06/04 08:28:02;;;;;;;7.43;6.05;;;;;;;27.64;58.15;101539.38;4987980;28;20062;-74
2021/06/04 08:30:28;;;;;;;7.10;5.72;;;;;;;27.78;58.87;101540.09;4985697;28;20113;-74
2021/06/04 08:32:54;;;;;;;6.72;6.00;;;;;;;28.02;57.83;101533.66;4990815;28;20030;-74
2021/06/04 08:35:22;;;;;;;7.78;6.07;;;;;;;27.92;58.50;101528.47;4988650;28;20030;-74
2021/06/04 08:37:49;;;;;;;8.10;6.07;;;;;;;28.06;57.09;101527.97;4988875;28;20490;-77
2021/06/04 08:40:19;;;;;;;7.63;6.22;;;;;;;28.19;56.80;101523.09;4981643;28;20042;-74
2021/06/04 08:42:48;;;;;;;7.18;5.97;;;;;;;28.10;56.65;101520.31;4983726;28;20034;-74
2021/06/04 08:45:32;;;;;;;7.50;5.63;;;;;;;28.07;56.39;101519.19;4983967;28;20039;-74
2021/06/04 08:48:36;;;;;;;7.03;5.93;;;;;;;28.29;57.32;101524.69;4981939;28;20045;-75
2021/06/04 08:51:07;;;;;;;7.57;5.88;;;;;;;28.13;55.61;101519.38;4988167;28;20038;-73
2021/06/04 08:53:44;;;;;;;7.72;5.43;;;;;;;28.36;57.01;101532.72;4988818;28;20375;-74
2021/06/04 08:56:16;;;;;;;7.28;5.80;;;;;;;28.26;55.92;101526.38;4989196;28;20061;-73
2021/06/04 08:58:50;;;;;;;8.32;5.60;;;;;;;28.60;55.36;101524.69;4989618;28;20030;-74
2021/06/04 09:01:20;;;;;;;8.57;5.50;;;;;;;28.57;55.83;101528.38;4984943;28;20046;-73
2021/06/04 09:03:52;;;;;;;7.60;6.22;;;;;;;28.02;55.80;101522.56;4989080;28;20051;-73
2021/06/04 09:06:27;;;;;;;8.05;5.78;;;;;;;27.78;54.83;101513.16;4987028;28;20061;-74
2021/06/04 09:08:54;;;;;;;6.90;6.13;;;;;;;28.26;56.69;101511.75;4981305;28;20510;-74
2021/06/04 09:11:28;;;;;;;7.43;6.05;;;;;;;28.68;54.07;101521.19;4984672;28;20074;-73
2021/06/04 09:13:54;;;;;;;7.40;5.20;;;;;;;28.91;52.97;101517.84;4984140;28;20034;-74
2021/06/04 09:16:40;;;;;;;7.95;5.70;;;;;;;29.25;53.09;101509.25;4981313;28;20026;-74
2021/06/04 09:19:36;;;;;;;7.18;5.72;;;;;;;28.99;54.18;101512.75;4983397;28;20134;-73
2021/06/04 09:22:03;;;;;;;6.70;5.70;;;;;;;29.42;52.45;101514.50;4984617;28;20470;-74
2021/06/04 09:24:37;;;;;;;8.07;5.70;;;;;;;28.67;52.84;101513.31;4985939;28;20085;-74
2021/06/04 09:27:04;;;;;;;6.63;5.72;;;;;;;29.12;50.90;101505.84;4981570;28;20034;-73
2021/06/04 09:29:31;;;;;;;9.32;5.47;;;;;;;29.28;52.22;101513.91;4986493;28;20038;-74
2021/06/04 09:32:20;;;;;;;8.63;5.35;;;;;;;29.55;52.72;101507.56;4990541;28;20030;-74
2021/06/04 09:34:47;;;;;;;7.82;5.60;;;;;;;29.34;51.45;101508.50;4986326;28;20411;-74
2021/06/04 09:37:29;;;;;;;8.27;5.70;;;;;;;29.28;50.48;101504.81;4988745;28;20444;-74
2021/06/04 09:40:12;;;;;;;6.10;4.97;;;;;;;29.80;50.58;101504.47;4986172;28;20043;-74
2021/06/04 09:42:55;;;;;;;8.85;5.10;;;;;;;30.00;51.86;101503.94;4988426;28;20544;-74
2021/06/04 09:45:47;;;;;;;5.97;4.68;;;;;;;30.32;51.04;101496.88;4985721;28;20049;-74
2021/06/04 09:48:34;;;;;;;6.80;5.15;;;;;;;30.48;50.30;101502.06;4988682;28;20081;-73
2021/06/04 09:51:30;;;;;;;5.65;4.78;;;;;;;29.53;49.76;101501.69;4985264;28;20034;-73
2021/06/04 09:54:19;;;;;;;5.90;5.28;;;;;;;29.50;50.00;101513.72;4989221;28;20164;-74
2021/06/04 09:56:45;;;;;;;6.65;5.30;;;;;;;29.89;49.09;101504.44;4988920;28;20451;-74
2021/06/04 09:59:14;;;;;;;7.20;5.07;;;;;;;29.28;49.62;101502.81;4986883;28;20034;-74
2021/06/04 10:01:46;;;;;;;9.10;4.65;;;;;;;29.89;51.26;101501.66;4989717;28;20054;-74
2021/06/04 10:04:27;;;;;;;7.40;5.25;;;;;;;30.37;47.76;101499.03;4987135;28;20037;-74
2021/06/04 10:07:06;;;;;;;;;;;;;;;29.74;50.18;101508.31;4986974;28;20027;-75
2021/06/04 10:09:33;;;;;;;8.48;4.60;;;;;;;30.57;48.81;101504.81;4984725;28;20000;-73
2021/06/04 10:12:06;;;;;;;5.22;4.28;;;;;;;30.92;49.42;101503.06;4983740;28;20408;-74
2021/06/04 10:14:53;;;;;;;6.22;4.68;;;;;;;31.24;49.13;101498.66;4985237;28;20073;-76
2021/06/04 10:20:32;;;;;;;12.82;4.90;;;;;;;31.09;47.51;101512.53;4985627;28;20407;-73
2021/06/04 10:23:07;;;;;;;7.97;4.22;;;;;;;31.49;47.69;101498.16;4984830;28;20030;-73
2021/06/04 10:25:47;;;;;;;5.38;4.88;;;;;;;31.98;44.54;101505.88;4979678;28;20046;-74
2021/06/04 10:28:47;;;;;;;7.13;5.05;;;;;;;31.63;45.62;101498.16;4986910;28;20061;-74
2021/06/04 10:31:15;;;;;;;8.10;4.20;;;;;;;30.66;45.59;101490.84;4982376;28;20050;-74
2021/06/04 10:34:06;;;;;;;6.50;4.43;;;;;;;30.96;47.34;101498.09;4991708;28;20098;-74
2021/06/04 10:36:38;;;;;;;7.18;4.93;;;;;;;30.13;48.34;101483.06;4991367;28;20030;-73
2021/06/04 10:39:36;;;;;;;5.63;4.82;;;;;;;30.74;45.81;101481.66;4982734;28;20042;-74
2021/06/04 10:42:41;;;;;;;5.90;4.70;;;;;;;29.72;47.74;101500.47;4981724;28;20487;-75
2021/06/04 10:45:26;;;;;;;9.02;4.60;;;;;;;30.43;49.14;101499.94;4986569;28;20038;-74
2021/06/04 10:47:51;;;;;;;5.20;4.70;;;;;;;30.60;46.65;101498.31;4982910;28;20125;-74
2021/06/04 10:50:21;;;;;;;5.93;4.55;;;;;;;30.67;45.58;101490.38;4979153;28;20137;-74
2021/06/04 10:53:02;;;;;;;4.03;3.72;;;;;;;31.35;46.67;101485.72;4987898;28;20096;-73
2021/06/04 10:55:40;;;;;;;4.55;4.15;;;;;;;32.04;45.56;101484.44;5001329;23;20081;-76
2021/06/04 10:58:18;;;;;;;4.93;3.55;;;;;;;32.20;44.48;101481.91;5014326;28;20049;-76
2021/06/04 11:00:53;;;;;;;6.13;4.50;;;;;;;31.72;44.08;101486.94;5008605;28;20041;-76
2021/06/04 11:03:22;;;;;;;5.90;3.90;;;;;;;30.90;43.90;101486.84;5005917;28;20041;-76
2021/06/04 11:05:53;;;;;;;10.27;3.90;;;;;;;31.39;43.07;101482.78;5004746;28;20039;-76
2021/06/04 11:08:46;;;;;;;4.28;3.83;;;;;;;31.67;44.11;101479.22;5000779;28;20062;-76
2021/06/04 11:11:33;;;;;;;3.70;3.40;;;;;;;31.78;41.46;101479.44;4996743;28;20510;-76
2021/06/04 11:14:24;;;;;;;4.00;3.50;;;;;;;31.71;42.38;101479.81;4997117;28;20117;-76
2021/06/04 11:16:55;;;;;;;4.60;3.10;;;;;;;31.70;41.50;101477.50;4992790;28;20038;-76
2021/06/04 11:19:45;;;;;;;4.93;3.58;;;;;;;32.08;41.43;101473.81;4989570;28;20712;-76
2021/06/04 11:22:19;;;;;;;6.27;3.87;;;;;;;32.59;41.42;101474.13;4996884;28;20386;-76
2021/06/04 11:24:55;;;;;;;3.97;3.55;;;;;;;33.01;39.85;101477.22;5010603;28;20113;-76
2021/06/04 11:27:32;;;;;;;5.25;3.70;;;;;;;32.97;39.75;101482.22;4995020;28;20034;-73
2021/06/04 11:29:58;;;;;;;3.65;3.30;;;;;;;33.41;40.96;101477.13;4997986;28;20084;-74
2021/06/04 11:32:32;;;;;;;3.67;3.28;;;;;;;33.37;39.55;101481.41;4994397;28;21769;-73
2021/06/04 11:35:00;;;;;;;4.15;3.03;;;;;;;32.94;39.60;101474.03;5001727;28;20038;-73
2021/06/04 11:37:45;;;;;;;4.10;3.45;;;;;;;32.36;40.75;101467.44;5000276;28;20042;-75
2021/06/04 11:40:16;;;;;;;3.47;3.00;;;;;;;32.81;39.17;101463.25;4992272;28;20037;-75
2021/06/04 11:43:07;;;;;;;3.58;3.28;;;;;;;31.23;41.99;101470.03;4999015;28;20102;-74